sensor_id;sensor_type;location;lat;lon;timestamp;P1;durP1;ratioP1;P2;durP2;ratioP2
4575;SDS011;2300;51.874;8.430;2022-08-04T00:01:31;8.95;;;4.85;;
4575;SDS011;2300;51.874;8.430;2022-08-04T00:04:07;10.45;;;4.70;;
4575;SDS011;2300;51.874;8.430;2022-08-04T00:06:43;10.65;;;4.78;;
4575;SDS011;2300;51.874;8.430;2022-08-04T00:09:15;9.73;;;4.70;;
4575;SDS011;2300;51.874;8.430;2022-08-04T00:11:45;9.45;;;4.40;;
4575;SDS011;2300;51.874;8.430;2022-08-04T00:14:15;6.78;;;4.00;;
4575;SDS011;2300;51.874;8.430;2022-08-04T00:16:44;7.82;;;4.53;;
4575;SDS011;2300;51.874;8.430;2022-08-04T00:19:15;9.05;;;4.85;;
4575;SDS011;2300;51.874;8.430;2022-08-04T00:21:46;10.35;;;4.55;;
4575;SDS011;2300;51.874;8.430;2022-08-04T00:24:16;10.05;;;4.40;;
4575;SDS011;2300;51.874;8.430;2022-08-04T00:26:46;11.52;;;4.97;;
4575;SDS011;2300;51.874;8.430;2022-08-04T00:29:13;9.50;;;4.47;;
4575;SDS011;2300;51.874;8.430;2022-08-04T00:31:40;8.40;;;4.25;;
4575;SDS011;2300;51.874;8.430;2022-08-04T00:34:08;9.02;;;4.28;;
4575;SDS011;2300;51.874;8.430;2022-08-04T00:36:37;7.85;;;3.90;;
4575;SDS011;2300;51.874;8.430;2022-08-04T00:39:05;9.48;;;4.75;;
4575;SDS011;2300;51.874;8.430;2022-08-04T00:41:37;10.93;;;4.90;;
4575;SDS011;2300;51.874;8.430;2022-08-04T00:44:16;10.93;;;5.43;;
4575;SDS011;2300;51.874;8.430;2022-08-04T00:46:59;8.13;;;5.28;;
4575;SDS011;2300;51.874;8.430;2022-08-04T00:49:40;8.18;;;4.63;;
4575;SDS011;2300;51.874;8.430;2022-08-04T00:52:22;7.70;;;4.55;;
4575;SDS011;2300;51.874;8.430;2022-08-04T00:55:04;12.38;;;5.30;;
4575;SDS011;2300;51.874;8.430;2022-08-04T00:57:49;11.13;;;5.10;;
4575;SDS011;2300;51.874;8.430;2022-08-04T01:00:28;7.50;;;4.60;;
4575;SDS011;2300;51.874;8.430;2022-08-04T01:03:08;9.80;;;5.05;;
4575;SDS011;2300;51.874;8.430;2022-08-04T01:05:47;8.95;;;4.95;;
4575;SDS011;2300;51.874;8.430;2022-08-04T01:08:31;10.55;;;5.50;;
4575;SDS011;2300;51.874;8.430;2022-08-04T01:11:21;10.25;;;5.53;;
4575;SDS011;2300;51.874;8.430;2022-08-04T01:13:59;10.40;;;5.82;;
4575;SDS011;2300;51.874;8.430;2022-08-04T01:16:42;8.45;;;5.28;;
4575;SDS011;2300;51.874;8.430;2022-08-04T01:19:15;9.02;;;5.18;;
4575;SDS011;2300;51.874;8.430;2022-08-04T01:22:12;9.55;;;5.18;;
4575;SDS011;2300;51.874;8.430;2022-08-04T01:24:50;10.05;;;5.28;;
4575;SDS011;2300;51.874;8.430;2022-08-04T01:27:34;11.45;;;5.15;;
4575;SDS011;2300;51.874;8.430;2022-08-04T01:30:18;7.07;;;5.13;;
4575;SDS011;2300;51.874;8.430;2022-08-04T01:32:46;9.35;;;4.82;;
4575;SDS011;2300;51.874;8.430;2022-08-04T01:35:19;9.40;;;5.25;;
4575;SDS011;2300;51.874;8.430;2022-08-04T01:37:54;8.43;;;5.40;;
4575;SDS011;2300;51.874;8.430;2022-08-04T01:40:26;9.45;;;5.38;;
4575;SDS011;2300;51.874;8.430;2022-08-04T01:42:54;7.30;;;5.13;;
4575;SDS011;2300;51.874;8.430;2022-08-04T01:45:23;10.43;;;5.97;;
4575;SDS011;2300;51.874;8.430;2022-08-04T01:47:50;9.23;;;5.60;;
4575;SDS011;2300;51.874;8.430;2022-08-04T01:50:23;10.90;;;6.20;;
4575;SDS011;2300;51.874;8.430;2022-08-04T01:52:52;11.02;;;6.07;;
4575;SDS011;2300;51.874;8.430;2022-08-04T01:55:20;9.23;;;6.65;;
4575;SDS011;2300;51.874;8.430;2022-08-04T01:57:48;11.80;;;6.85;;
4575;SDS011;2300;51.874;8.430;2022-08-04T02:00:19;9.52;;;6.63;;
4575;SDS011;2300;51.874;8.430;2022-08-04T02:02:49;9.38;;;6.55;;
4575;SDS011;2300;51.874;8.430;2022-08-04T02:05:16;10.57;;;6.82;;
4575;SDS011;2300;51.874;8.430;2022-08-04T02:08:00;10.38;;;6.72;;
4575;SDS011;2300;51.874;8.430;2022-08-04T02:10:36;12.13;;;7.30;;
4575;SDS011;2300;51.874;8.430;2022-08-04T02:13:19;12.02;;;6.97;;
4575;SDS011;2300;51.874;8.430;2022-08-04T02:15:51;12.48;;;6.47;;
4575;SDS011;2300;51.874;8.430;2022-08-04T02:18:27;10.50;;;7.13;;
4575;SDS011;2300;51.874;8.430;2022-08-04T02:20:57;11.30;;;6.28;;
4575;SDS011;2300;51.874;8.430;2022-08-04T02:23:28;11.00;;;6.65;;
4575;SDS011;2300;51.874;8.430;2022-08-04T02:25:57;13.07;;;6.95;;
4575;SDS011;2300;51.874;8.430;2022-08-04T02:28:29;11.75;;;7.70;;
4575;SDS011;2300;51.874;8.430;2022-08-04T02:31:05;11.30;;;6.30;;
4575;SDS011;2300;51.874;8.430;2022-08-04T02:33:42;12.73;;;6.88;;
4575;SDS011;2300;51.874;8.430;2022-08-04T02:36:12;9.30;;;6.10;;
4575;SDS011;2300;51.874;8.430;2022-08-04T02:39:00;9.40;;;5.80;;
4575;SDS011;2300;51.874;8.430;2022-08-04T02:41:29;10.18;;;6.25;;
4575;SDS011;2300;51.874;8.430;2022-08-04T02:44:03;10.57;;;6.97;;
4575;SDS011;2300;51.874;8.430;2022-08-04T02:46:31;14.43;;;9.10;;
4575;SDS011;2300;51.874;8.430;2022-08-04T02:49:02;14.20;;;8.90;;
4575;SDS011;2300;51.874;8.430;2022-08-04T02:51:32;15.40;;;8.43;;
4575;SDS011;2300;51.874;8.430;2022-08-04T02:54:02;11.25;;;6.72;;
4575;SDS011;2300;51.874;8.430;2022-08-04T02:56:31;13.85;;;6.35;;
4575;SDS011;2300;51.874;8.430;2022-08-04T02:59:00;9.70;;;6.45;;
4575;SDS011;2300;51.874;8.430;2022-08-04T03:01:28;11.88;;;6.32;;
4575;SDS011;2300;51.874;8.430;2022-08-04T03:04:05;11.35;;;6.57;;
4575;SDS011;2300;51.874;8.430;2022-08-04T03:06:49;11.07;;;6.47;;
4575;SDS011;2300;51.874;8.430;2022-08-04T03:09:45;9.85;;;6.57;;
4575;SDS011;2300;51.874;8.430;2022-08-04T03:12:32;9.75;;;6.00;;
4575;SDS011;2300;51.874;8.430;2022-08-04T03:15:35;8.57;;;6.47;;
4575;SDS011;2300;51.874;8.430;2022-08-04T03:21:35;10.57;;;6.30;;
4575;SDS011;2300;51.874;8.430;2022-08-04T03:24:32;11.80;;;5.97;;
4575;SDS011;2300;51.874;8.430;2022-08-04T03:27:25;12.07;;;6.97;;
4575;SDS011;2300;51.874;8.430;2022-08-04T03:30:13;10.23;;;6.07;;
4575;SDS011;2300;51.874;8.430;2022-08-04T03:32:52;9.38;;;6.70;;
4575;SDS011;2300;51.874;8.430;2022-08-04T03:39:17;11.05;;;6.10;;
4575;SDS011;2300;51.874;8.430;2022-08-04T03:42:06;11.38;;;6.05;;
4575;SDS011;2300;51.874;8.430;2022-08-04T03:44:53;8.88;;;6.07;;
4575;SDS011;2300;51.874;8.430;2022-08-04T03:47:52;9.25;;;6.20;;
4575;SDS011;2300;51.874;8.430;2022-08-04T03:54:03;10.43;;;6.15;;
4575;SDS011;2300;51.874;8.430;2022-08-04T03:57:13;9.98;;;6.53;;
4575;SDS011;2300;51.874;8.430;2022-08-04T03:59:56;12.45;;;6.47;;
4575;SDS011;2300;51.874;8.430;2022-08-04T04:11:30;13.00;;;6.00;;
4575;SDS011;2300;51.874;8.430;2022-08-04T04:17:13;11.60;;;7.30;;
4575;SDS011;2300;51.874;8.430;2022-08-04T04:19:58;15.77;;;6.55;;
4575;SDS011;2300;51.874;8.430;2022-08-04T04:22:59;10.55;;;6.80;;
4575;SDS011;2300;51.874;8.430;2022-08-04T04:25:43;10.05;;;6.55;;
4575;SDS011;2300;51.874;8.430;2022-08-04T04:28:26;12.63;;;7.05;;
4575;SDS011;2300;51.874;8.430;2022-08-04T04:31:09;11.80;;;6.47;;
4575;SDS011;2300;51.874;8.430;2022-08-04T04:34:04;11.90;;;6.72;;
4575;SDS011;2300;51.874;8.430;2022-08-04T04:36:43;8.93;;;6.10;;
4575;SDS011;2300;51.874;8.430;2022-08-04T04:39:25;13.60;;;7.13;;
4575;SDS011;2300;51.874;8.430;2022-08-04T04:42:05;12.80;;;7.22;;
4575;SDS011;2300;51.874;8.430;2022-08-04T04:44:46;13.55;;;7.20;;
4575;SDS011;2300;51.874;8.430;2022-08-04T04:47:26;11.00;;;7.38;;
4575;SDS011;2300;51.874;8.430;2022-08-04T04:50:02;13.55;;;7.50;;
4575;SDS011;2300;51.874;8.430;2022-08-04T04:52:36;12.60;;;8.27;;
4575;SDS011;2300;51.874;8.430;2022-08-04T04:55:09;12.75;;;7.25;;
4575;SDS011;2300;51.874;8.430;2022-08-04T04:57:42;13.57;;;8.02;;
4575;SDS011;2300;51.874;8.430;2022-08-04T05:00:10;12.35;;;7.32;;
4575;SDS011;2300;51.874;8.430;2022-08-04T05:03:03;13.02;;;7.05;;
4575;SDS011;2300;51.874;8.430;2022-08-04T05:05:50;12.35;;;6.32;;
4575;SDS011;2300;51.874;8.430;2022-08-04T05:08:39;12.23;;;6.70;;
4575;SDS011;2300;51.874;8.430;2022-08-04T05:11:31;14.90;;;6.53;;
4575;SDS011;2300;51.874;8.430;2022-08-04T05:14:20;11.82;;;6.28;;
4575;SDS011;2300;51.874;8.430;2022-08-04T05:16:53;10.52;;;6.40;;
4575;SDS011;2300;51.874;8.430;2022-08-04T05:19:29;9.88;;;6.38;;
4575;SDS011;2300;51.874;8.430;2022-08-04T05:22:09;9.23;;;5.95;;
4575;SDS011;2300;51.874;8.430;2022-08-04T05:24:39;13.27;;;5.93;;
4575;SDS011;2300;51.874;8.430;2022-08-04T05:27:10;14.77;;;6.05;;
4575;SDS011;2300;51.874;8.430;2022-08-04T05:29:43;17.92;;;6.15;;
4575;SDS011;2300;51.874;8.430;2022-08-04T05:32:15;12.82;;;6.10;;
4575;SDS011;2300;51.874;8.430;2022-08-04T05:34:48;15.88;;;6.22;;
4575;SDS011;2300;51.874;8.430;2022-08-04T05:37:20;11.30;;;5.28;;
4575;SDS011;2300;51.874;8.430;2022-08-04T05:39:55;13.13;;;5.55;;
4575;SDS011;2300;51.874;8.430;2022-08-04T05:42:24;11.20;;;6.47;;
4575;SDS011;2300;51.874;8.430;2022-08-04T05:44:51;12.00;;;5.95;;
4575;SDS011;2300;51.874;8.430;2022-08-04T05:47:19;15.73;;;6.22;;
4575;SDS011;2300;51.874;8.430;2022-08-04T05:49:48;9.02;;;5.20;;
4575;SDS011;2300;51.874;8.430;2022-08-04T05:52:15;13.82;;;5.45;;
4575;SDS011;2300;51.874;8.430;2022-08-04T05:54:43;9.40;;;5.28;;
4575;SDS011;2300;51.874;8.430;2022-08-04T05:57:12;11.10;;;5.40;;
4575;SDS011;2300;51.874;8.430;2022-08-04T05:59:40;9.40;;;5.53;;
4575;SDS011;2300;51.874;8.430;2022-08-04T06:02:10;10.10;;;5.13;;
4575;SDS011;2300;51.874;8.430;2022-08-04T06:04:40;10.30;;;5.40;;
4575;SDS011;2300;51.874;8.430;2022-08-04T06:07:08;11.45;;;5.18;;
4575;SDS011;2300;51.874;8.430;2022-08-04T06:09:36;8.60;;;5.90;;
4575;SDS011;2300;51.874;8.430;2022-08-04T06:12:05;9.82;;;5.30;;
4575;SDS011;2300;51.874;8.430;2022-08-04T06:14:40;10.45;;;5.00;;
4575;SDS011;2300;51.874;8.430;2022-08-04T06:17:10;12.52;;;4.88;;
4575;SDS011;2300;51.874;8.430;2022-08-04T06:19:40;9.07;;;4.50;;
4575;SDS011;2300;51.874;8.430;2022-08-04T06:22:14;8.90;;;4.40;;
4575;SDS011;2300;51.874;8.430;2022-08-04T06:24:43;12.27;;;4.50;;
4575;SDS011;2300;51.874;8.430;2022-08-04T06:27:12;7.90;;;4.40;;
4575;SDS011;2300;51.874;8.430;2022-08-04T06:29:39;8.50;;;3.90;;
4575;SDS011;2300;51.874;8.430;2022-08-04T06:32:07;8.73;;;4.95;;
4575;SDS011;2300;51.874;8.430;2022-08-04T06:34:51;11.18;;;4.50;;
4575;SDS011;2300;51.874;8.430;2022-08-04T06:37:22;6.95;;;4.03;;
4575;SDS011;2300;51.874;8.430;2022-08-04T06:39:50;10.40;;;4.50;;
4575;SDS011;2300;51.874;8.430;2022-08-04T06:42:17;9.07;;;4.07;;
4575;SDS011;2300;51.874;8.430;2022-08-04T06:44:48;6.35;;;3.70;;
4575;SDS011;2300;51.874;8.430;2022-08-04T06:47:16;7.95;;;4.07;;
4575;SDS011;2300;51.874;8.430;2022-08-04T06:49:44;6.63;;;3.72;;
4575;SDS011;2300;51.874;8.430;2022-08-04T06:52:11;5.00;;;3.50;;
4575;SDS011;2300;51.874;8.430;2022-08-04T06:54:43;6.03;;;3.70;;
4575;SDS011;2300;51.874;8.430;2022-08-04T06:57:10;7.00;;;3.90;;
4575;SDS011;2300;51.874;8.430;2022-08-04T06:59:40;7.60;;;3.90;;
4575;SDS011;2300;51.874;8.430;2022-08-04T07:02:10;8.40;;;4.38;;
4575;SDS011;2300;51.874;8.430;2022-08-04T07:04:40;11.10;;;4.20;;
4575;SDS011;2300;51.874;8.430;2022-08-04T07:07:08;7.82;;;4.03;;
4575;SDS011;2300;51.874;8.430;2022-08-04T07:09:36;8.80;;;4.00;;
4575;SDS011;2300;51.874;8.430;2022-08-04T07:12:06;7.93;;;3.70;;
4575;SDS011;2300;51.874;8.430;2022-08-04T07:14:34;8.98;;;3.90;;
4575;SDS011;2300;51.874;8.430;2022-08-04T07:17:01;7.65;;;3.90;;
4575;SDS011;2300;51.874;8.430;2022-08-04T07:19:29;14.25;;;7.47;;
4575;SDS011;2300;51.874;8.430;2022-08-04T07:21:57;21.75;;;9.13;;
4575;SDS011;2300;51.874;8.430;2022-08-04T07:24:28;8.93;;;5.28;;
4575;SDS011;2300;51.874;8.430;2022-08-04T07:26:55;6.90;;;3.42;;
4575;SDS011;2300;51.874;8.430;2022-08-04T07:29:27;6.68;;;3.67;;
4575;SDS011;2300;51.874;8.430;2022-08-04T07:31:54;10.38;;;3.35;;
4575;SDS011;2300;51.874;8.430;2022-08-04T07:34:22;6.25;;;3.40;;
4575;SDS011;2300;51.874;8.430;2022-08-04T07:36:50;42.05;;;16.33;;
4575;SDS011;2300;51.874;8.430;2022-08-04T07:39:18;17.75;;;7.65;;
4575;SDS011;2300;51.874;8.430;2022-08-04T07:41:46;12.60;;;4.00;;
4575;SDS011;2300;51.874;8.430;2022-08-04T07:44:14;7.53;;;4.15;;
4575;SDS011;2300;51.874;8.430;2022-08-04T07:46:42;10.25;;;3.35;;
4575;SDS011;2300;51.874;8.430;2022-08-04T07:49:11;4.85;;;2.88;;
4575;SDS011;2300;51.874;8.430;2022-08-04T07:51:38;6.90;;;3.00;;
4575;SDS011;2300;51.874;8.430;2022-08-04T07:54:05;9.82;;;3.30;;
4575;SDS011;2300;51.874;8.430;2022-08-04T07:56:35;5.50;;;3.10;;
4575;SDS011;2300;51.874;8.430;2022-08-04T07:59:03;6.05;;;3.42;;
4575;SDS011;2300;51.874;8.430;2022-08-04T08:01:30;6.13;;;3.22;;
4575;SDS011;2300;51.874;8.430;2022-08-04T08:03:59;4.15;;;2.88;;
4575;SDS011;2300;51.874;8.430;2022-08-04T08:06:27;8.75;;;3.67;;
4575;SDS011;2300;51.874;8.430;2022-08-04T08:08:55;8.77;;;3.30;;
4575;SDS011;2300;51.874;8.430;2022-08-04T08:11:22;9.23;;;3.42;;
4575;SDS011;2300;51.874;8.430;2022-08-04T08:13:49;4.47;;;3.30;;
4575;SDS011;2300;51.874;8.430;2022-08-04T08:16:15;8.13;;;3.35;;
4575;SDS011;2300;51.874;8.430;2022-08-04T08:18:45;6.68;;;3.40;;
4575;SDS011;2300;51.874;8.430;2022-08-04T08:21:13;5.20;;;3.20;;
4575;SDS011;2300;51.874;8.430;2022-08-04T08:23:39;5.30;;;3.17;;
4575;SDS011;2300;51.874;8.430;2022-08-04T08:26:06;6.28;;;3.00;;
4575;SDS011;2300;51.874;8.430;2022-08-04T08:28:33;6.07;;;3.13;;
4575;SDS011;2300;51.874;8.430;2022-08-04T08:30:59;6.22;;;3.03;;
4575;SDS011;2300;51.874;8.430;2022-08-04T08:33:26;6.20;;;2.95;;
4575;SDS011;2300;51.874;8.430;2022-08-04T08:35:56;8.30;;;3.25;;
4575;SDS011;2300;51.874;8.430;2022-08-04T08:38:39;6.38;;;3.08;;
4575;SDS011;2300;51.874;8.430;2022-08-04T08:44:31;6.00;;;3.38;;
4575;SDS011;2300;51.874;8.430;2022-08-04T08:47:26;7.75;;;3.10;;
4575;SDS011;2300;51.874;8.430;2022-08-04T08:53:09;7.47;;;2.70;;
4575;SDS011;2300;51.874;8.430;2022-08-04T08:55:53;7.35;;;3.08;;
4575;SDS011;2300;51.874;8.430;2022-08-04T09:01:31;4.70;;;2.55;;
4575;SDS011;2300;51.874;8.430;2022-08-04T09:04:19;6.57;;;2.65;;
4575;SDS011;2300;51.874;8.430;2022-08-04T09:10:00;4.15;;;2.53;;
4575;SDS011;2300;51.874;8.430;2022-08-04T09:12:32;5.55;;;2.80;;
4575;SDS011;2300;51.874;8.430;2022-08-04T09:15:05;5.95;;;2.78;;
4575;SDS011;2300;51.874;8.430;2022-08-04T09:17:39;3.47;;;2.50;;
4575;SDS011;2300;51.874;8.430;2022-08-04T09:20:12;5.53;;;2.92;;
4575;SDS011;2300;51.874;8.430;2022-08-04T09:22:47;5.03;;;2.47;;
4575;SDS011;2300;51.874;8.430;2022-08-04T09:25:19;4.85;;;2.50;;
4575;SDS011;2300;51.874;8.430;2022-08-04T09:27:51;5.70;;;2.80;;
4575;SDS011;2300;51.874;8.430;2022-08-04T09:30:20;5.40;;;2.60;;
4575;SDS011;2300;51.874;8.430;2022-08-04T09:32:56;7.18;;;2.78;;
4575;SDS011;2300;51.874;8.430;2022-08-04T09:35:32;4.35;;;2.60;;
4575;SDS011;2300;51.874;8.430;2022-08-04T09:38:08;6.32;;;2.50;;
4575;SDS011;2300;51.874;8.430;2022-08-04T09:40:44;5.40;;;2.70;;
4575;SDS011;2300;51.874;8.430;2022-08-04T09:43:18;4.85;;;2.60;;
4575;SDS011;2300;51.874;8.430;2022-08-04T09:45:55;4.85;;;2.35;;
4575;SDS011;2300;51.874;8.430;2022-08-04T09:48:33;4.35;;;2.22;;
4575;SDS011;2300;51.874;8.430;2022-08-04T09:51:05;4.82;;;2.30;;
4575;SDS011;2300;51.874;8.430;2022-08-04T09:53:41;6.88;;;2.30;;
4575;SDS011;2300;51.874;8.430;2022-08-04T09:56:17;7.28;;;2.42;;
4575;SDS011;2300;51.874;8.430;2022-08-04T09:58:52;5.95;;;2.20;;
4575;SDS011;2300;51.874;8.430;2022-08-04T10:01:27;5.20;;;2.50;;
4575;SDS011;2300;51.874;8.430;2022-08-04T10:03:58;5.05;;;2.33;;
4575;SDS011;2300;51.874;8.430;2022-08-04T10:06:33;2.33;;;1.98;;
4575;SDS011;2300;51.874;8.430;2022-08-04T10:09:11;3.78;;;2.17;;
4575;SDS011;2300;51.874;8.430;2022-08-04T10:11:56;2.85;;;1.95;;
4575;SDS011;2300;51.874;8.430;2022-08-04T10:14:49;3.15;;;2.03;;
4575;SDS011;2300;51.874;8.430;2022-08-04T10:17:24;4.53;;;1.80;;
4575;SDS011;2300;51.874;8.430;2022-08-04T10:20:00;5.18;;;2.38;;
4575;SDS011;2300;51.874;8.430;2022-08-04T10:22:35;3.38;;;2.05;;
4575;SDS011;2300;51.874;8.430;2022-08-04T10:25:04;6.00;;;2.15;;
4575;SDS011;2300;51.874;8.430;2022-08-04T10:27:46;2.90;;;2.08;;
4575;SDS011;2300;51.874;8.430;2022-08-04T10:30:18;4.60;;;2.10;;
4575;SDS011;2300;51.874;8.430;2022-08-04T10:32:48;4.93;;;2.20;;
4575;SDS011;2300;51.874;8.430;2022-08-04T10:35:18;7.30;;;2.42;;
4575;SDS011;2300;51.874;8.430;2022-08-04T10:37:49;4.70;;;2.20;;
4575;SDS011;2300;51.874;8.430;2022-08-04T10:40:27;4.95;;;2.00;;
4575;SDS011;2300;51.874;8.430;2022-08-04T10:43:06;6.18;;;2.20;;
4575;SDS011;2300;51.874;8.430;2022-08-04T10:45:40;4.47;;;2.00;;
4575;SDS011;2300;51.874;8.430;2022-08-04T10:48:11;6.75;;;2.00;;
4575;SDS011;2300;51.874;8.430;2022-08-04T10:50:47;3.63;;;2.10;;
4575;SDS011;2300;51.874;8.430;2022-08-04T10:53:23;5.07;;;2.05;;
4575;SDS011;2300;51.874;8.430;2022-08-04T10:55:56;3.53;;;1.70;;
4575;SDS011;2300;51.874;8.430;2022-08-04T10:58:29;5.10;;;1.80;;
4575;SDS011;2300;51.874;8.430;2022-08-04T11:01:03;3.95;;;1.95;;
4575;SDS011;2300;51.874;8.430;2022-08-04T11:03:41;4.80;;;1.70;;
4575;SDS011;2300;51.874;8.430;2022-08-04T11:06:13;6.18;;;1.70;;
4575;SDS011;2300;51.874;8.430;2022-08-04T11:08:41;5.13;;;1.77;;
4575;SDS011;2300;51.874;8.430;2022-08-04T11:11:12;2.42;;;1.55;;
4575;SDS011;2300;51.874;8.430;2022-08-04T11:13:43;3.70;;;1.73;;
4575;SDS011;2300;51.874;8.430;2022-08-04T11:16:15;2.25;;;1.60;;
4575;SDS011;2300;51.874;8.430;2022-08-04T11:18:45;3.25;;;1.40;;
4575;SDS011;2300;51.874;8.430;2022-08-04T11:21:19;6.32;;;1.48;;
4575;SDS011;2300;51.874;8.430;2022-08-04T11:23:52;3.30;;;1.40;;
4575;SDS011;2300;51.874;8.430;2022-08-04T11:26:28;5.75;;;1.60;;
4575;SDS011;2300;51.874;8.430;2022-08-04T11:29:04;3.38;;;1.55;;
4575;SDS011;2300;51.874;8.430;2022-08-04T11:31:43;1.95;;;1.25;;
4575;SDS011;2300;51.874;8.430;2022-08-04T11:34:13;1.80;;;1.40;;
4575;SDS011;2300;51.874;8.430;2022-08-04T11:36:50;3.90;;;1.88;;
4575;SDS011;2300;51.874;8.430;2022-08-04T11:39:23;2.35;;;1.33;;
4575;SDS011;2300;51.874;8.430;2022-08-04T11:41:55;3.60;;;1.38;;
4575;SDS011;2300;51.874;8.430;2022-08-04T11:44:28;2.33;;;1.50;;
4575;SDS011;2300;51.874;8.430;2022-08-04T11:47:00;5.15;;;1.70;;
4575;SDS011;2300;51.874;8.430;2022-08-04T11:49:32;2.53;;;1.58;;
4575;SDS011;2300;51.874;8.430;2022-08-04T11:52:05;4.72;;;1.50;;
4575;SDS011;2300;51.874;8.430;2022-08-04T11:54:34;5.03;;;1.65;;
4575;SDS011;2300;51.874;8.430;2022-08-04T11:57:02;4.20;;;1.58;;
4575;SDS011;2300;51.874;8.430;2022-08-04T11:59:30;2.70;;;1.20;;
4575;SDS011;2300;51.874;8.430;2022-08-04T12:02:17;5.30;;;1.48;;
4575;SDS011;2300;51.874;8.430;2022-08-04T12:04:55;4.57;;;1.25;;
4575;SDS011;2300;51.874;8.430;2022-08-04T12:07:28;2.72;;;1.13;;
4575;SDS011;2300;51.874;8.430;2022-08-04T12:10:08;2.45;;;1.52;;
4575;SDS011;2300;51.874;8.430;2022-08-04T12:12:42;4.95;;;1.40;;
4575;SDS011;2300;51.874;8.430;2022-08-04T12:15:15;4.25;;;1.20;;
4575;SDS011;2300;51.874;8.430;2022-08-04T12:17:48;3.63;;;1.23;;
4575;SDS011;2300;51.874;8.430;2022-08-04T12:20:23;3.30;;;1.38;;
4575;SDS011;2300;51.874;8.430;2022-08-04T12:22:53;4.70;;;1.23;;
4575;SDS011;2300;51.874;8.430;2022-08-04T12:25:22;3.20;;;1.15;;
4575;SDS011;2300;51.874;8.430;2022-08-04T12:27:56;3.53;;;1.33;;
4575;SDS011;2300;51.874;8.430;2022-08-04T12:30:25;3.35;;;1.30;;
4575;SDS011;2300;51.874;8.430;2022-08-04T12:33:00;2.28;;;1.08;;
4575;SDS011;2300;51.874;8.430;2022-08-04T12:35:32;2.50;;;1.20;;
4575;SDS011;2300;51.874;8.430;2022-08-04T12:38:04;5.20;;;1.40;;
4575;SDS011;2300;51.874;8.430;2022-08-04T12:40:32;3.72;;;1.40;;
4575;SDS011;2300;51.874;8.430;2022-08-04T12:43:05;4.43;;;1.30;;
4575;SDS011;2300;51.874;8.430;2022-08-04T12:45:41;4.63;;;1.17;;
4575;SDS011;2300;51.874;8.430;2022-08-04T12:48:11;3.70;;;1.30;;
4575;SDS011;2300;51.874;8.430;2022-08-04T12:50:38;2.90;;;1.20;;
4575;SDS011;2300;51.874;8.430;2022-08-04T12:53:10;1.85;;;1.23;;
4575;SDS011;2300;51.874;8.430;2022-08-04T12:55:38;2.90;;;1.20;;
4575;SDS011;2300;51.874;8.430;2022-08-04T12:58:12;5.07;;;1.27;;
4575;SDS011;2300;51.874;8.430;2022-08-04T13:00:41;4.93;;;1.20;;
4575;SDS011;2300;51.874;8.430;2022-08-04T13:03:11;2.08;;;1.10;;
4575;SDS011;2300;51.874;8.430;2022-08-04T13:05:41;3.38;;;1.30;;
4575;SDS011;2300;51.874;8.430;2022-08-04T13:08:11;2.85;;;0.95;;
4575;SDS011;2300;51.874;8.430;2022-08-04T13:10:40;5.50;;;1.40;;
4575;SDS011;2300;51.874;8.430;2022-08-04T13:13:13;4.75;;;1.23;;
4575;SDS011;2300;51.874;8.430;2022-08-04T13:15:41;4.20;;;1.50;;
4575;SDS011;2300;51.874;8.430;2022-08-04T13:18:11;4.43;;;1.80;;
4575;SDS011;2300;51.874;8.430;2022-08-04T13:20:39;5.45;;;1.92;;
4575;SDS011;2300;51.874;8.430;2022-08-04T13:23:06;5.03;;;2.13;;
4575;SDS011;2300;51.874;8.430;2022-08-04T13:25:35;6.43;;;2.42;;
4575;SDS011;2300;51.874;8.430;2022-08-04T13:28:07;5.45;;;2.25;;
4575;SDS011;2300;51.874;8.430;2022-08-04T13:30:40;7.30;;;2.80;;
4575;SDS011;2300;51.874;8.430;2022-08-04T13:33:11;6.45;;;2.53;;
4575;SDS011;2300;51.874;8.430;2022-08-04T13:35:41;4.30;;;2.35;;
4575;SDS011;2300;51.874;8.430;2022-08-04T13:38:11;6.97;;;2.75;;
4575;SDS011;2300;51.874;8.430;2022-08-04T13:40:38;4.95;;;2.17;;
4575;SDS011;2300;51.874;8.430;2022-08-04T13:43:07;9.77;;;2.92;;
4575;SDS011;2300;51.874;8.430;2022-08-04T13:45:37;7.20;;;2.45;;
4575;SDS011;2300;51.874;8.430;2022-08-04T13:48:06;6.82;;;2.40;;
4575;SDS011;2300;51.874;8.430;2022-08-04T13:50:37;7.68;;;2.45;;
4575;SDS011;2300;51.874;8.430;2022-08-04T13:53:11;3.08;;;2.10;;
4575;SDS011;2300;51.874;8.430;2022-08-04T13:55:37;5.47;;;2.05;;
4575;SDS011;2300;51.874;8.430;2022-08-04T13:58:06;5.85;;;2.28;;
4575;SDS011;2300;51.874;8.430;2022-08-04T14:00:40;6.50;;;2.00;;
4575;SDS011;2300;51.874;8.430;2022-08-04T14:03:28;4.65;;;2.00;;
4575;SDS011;2300;51.874;8.430;2022-08-04T14:06:11;8.32;;;2.08;;
4575;SDS011;2300;51.874;8.430;2022-08-04T14:08:50;3.88;;;2.10;;
4575;SDS011;2300;51.874;8.430;2022-08-04T14:11:30;6.50;;;1.80;;
4575;SDS011;2300;51.874;8.430;2022-08-04T14:14:03;6.28;;;2.13;;
4575;SDS011;2300;51.874;8.430;2022-08-04T14:16:39;6.57;;;2.17;;
4575;SDS011;2300;51.874;8.430;2022-08-04T14:19:20;5.45;;;1.90;;
4575;SDS011;2300;51.874;8.430;2022-08-04T14:21:48;3.85;;;1.92;;
4575;SDS011;2300;51.874;8.430;2022-08-04T14:24:21;7.50;;;2.25;;
4575;SDS011;2300;51.874;8.430;2022-08-04T14:26:54;4.32;;;2.15;;
4575;SDS011;2300;51.874;8.430;2022-08-04T14:29:24;7.90;;;2.47;;
4575;SDS011;2300;51.874;8.430;2022-08-04T14:31:51;10.05;;;2.80;;
4575;SDS011;2300;51.874;8.430;2022-08-04T14:34:28;9.52;;;2.60;;
4575;SDS011;2300;51.874;8.430;2022-08-04T14:36:56;8.57;;;2.83;;
4575;SDS011;2300;51.874;8.430;2022-08-04T14:39:36;7.50;;;2.90;;
4575;SDS011;2300;51.874;8.430;2022-08-04T14:42:03;7.18;;;2.55;;
4575;SDS011;2300;51.874;8.430;2022-08-04T14:44:31;9.60;;;2.78;;
4575;SDS011;2300;51.874;8.430;2022-08-04T14:46:57;7.15;;;2.70;;
4575;SDS011;2300;51.874;8.430;2022-08-04T14:49:25;10.45;;;3.15;;
4575;SDS011;2300;51.874;8.430;2022-08-04T14:51:52;19.42;;;3.75;;
4575;SDS011;2300;51.874;8.430;2022-08-04T14:54:26;8.60;;;2.47;;
4575;SDS011;2300;51.874;8.430;2022-08-04T14:56:55;8.57;;;2.90;;
4575;SDS011;2300;51.874;8.430;2022-08-04T14:59:23;7.40;;;2.97;;
4575;SDS011;2300;51.874;8.430;2022-08-04T15:01:52;13.00;;;2.92;;
4575;SDS011;2300;51.874;8.430;2022-08-04T15:04:21;7.38;;;2.70;;
4575;SDS011;2300;51.874;8.430;2022-08-04T15:06:49;7.00;;;2.75;;
4575;SDS011;2300;51.874;8.430;2022-08-04T15:09:16;13.00;;;2.88;;
4575;SDS011;2300;51.874;8.430;2022-08-04T15:11:44;10.55;;;3.10;;
4575;SDS011;2300;51.874;8.430;2022-08-04T15:14:11;10.93;;;3.40;;
4575;SDS011;2300;51.874;8.430;2022-08-04T15:16:37;10.13;;;3.03;;
4575;SDS011;2300;51.874;8.430;2022-08-04T15:19:04;10.60;;;3.20;;
4575;SDS011;2300;51.874;8.430;2022-08-04T15:21:32;11.23;;;3.60;;
4575;SDS011;2300;51.874;8.430;2022-08-04T15:24:01;7.30;;;3.38;;
4575;SDS011;2300;51.874;8.430;2022-08-04T15:26:29;10.45;;;2.75;;
4575;SDS011;2300;51.874;8.430;2022-08-04T15:29:01;9.88;;;3.40;;
4575;SDS011;2300;51.874;8.430;2022-08-04T15:31:35;12.05;;;3.40;;
4575;SDS011;2300;51.874;8.430;2022-08-04T15:34:05;9.43;;;3.20;;
4575;SDS011;2300;51.874;8.430;2022-08-04T15:36:41;8.35;;;3.22;;
4575;SDS011;2300;51.874;8.430;2022-08-04T15:39:18;8.73;;;3.47;;
4575;SDS011;2300;51.874;8.430;2022-08-04T15:41:55;9.00;;;3.10;;
4575;SDS011;2300;51.874;8.430;2022-08-04T15:44:47;12.82;;;3.38;;
4575;SDS011;2300;51.874;8.430;2022-08-04T15:47:28;10.02;;;2.90;;
4575;SDS011;2300;51.874;8.430;2022-08-04T15:50:01;6.78;;;3.47;;
4575;SDS011;2300;51.874;8.430;2022-08-04T15:52:34;8.02;;;2.97;;
4575;SDS011;2300;51.874;8.430;2022-08-04T15:55:30;6.82;;;3.13;;
4575;SDS011;2300;51.874;8.430;2022-08-04T15:58:02;8.68;;;3.20;;
4575;SDS011;2300;51.874;8.430;2022-08-04T16:03:47;12.20;;;3.10;;
4575;SDS011;2300;51.874;8.430;2022-08-04T16:09:19;8.38;;;3.08;;
4575;SDS011;2300;51.874;8.430;2022-08-04T16:11:50;6.93;;;2.95;;
4575;SDS011;2300;51.874;8.430;2022-08-04T16:14:20;8.52;;;3.25;;
4575;SDS011;2300;51.874;8.430;2022-08-04T16:17:15;7.40;;;2.80;;
4575;SDS011;2300;51.874;8.430;2022-08-04T16:22:36;9.38;;;3.05;;
4575;SDS011;2300;51.874;8.430;2022-08-04T16:25:04;14.55;;;3.10;;
4575;SDS011;2300;51.874;8.430;2022-08-04T16:27:38;13.20;;;6.40;;
4575;SDS011;2300;51.874;8.430;2022-08-04T16:30:07;19.10;;;9.50;;
4575;SDS011;2300;51.874;8.430;2022-08-04T16:32:40;10.15;;;5.82;;
4575;SDS011;2300;51.874;8.430;2022-08-04T16:35:23;11.18;;;4.10;;